createdAt,value
2023-08-08T00:00:30.287Z, 36.60
2023-08-08T00:01:30.302Z, 36.61
2023-08-08T00:02:30.352Z, 36.64
2023-08-08T00:03:30.327Z, 36.61
2023-08-08T00:04:30.130Z, 36.58
2023-08-08T00:05:30.270Z, 36.57
2023-08-08T00:06:30.279Z, 36.55
2023-08-08T00:07:30.271Z, 36.57
2023-08-08T00:08:30.277Z, 36.56
2023-08-08T00:09:30.276Z, 36.57
2023-08-08T00:10:30.269Z, 36.52
2023-08-08T00:11:30.280Z, 36.54
2023-08-08T00:12:30.302Z, 36.52
2023-08-08T00:13:30.277Z, 36.50
2023-08-08T00:14:30.309Z, 36.54
2023-08-08T00:15:30.310Z, 36.52
2023-08-08T00:16:30.314Z, 36.51
2023-08-08T00:17:30.321Z, 36.53
2023-08-08T00:18:30.303Z, 36.51
2023-08-08T00:19:30.452Z, 36.48
2023-08-08T00:20:30.459Z, 36.52
2023-08-08T00:21:30.449Z, 36.48
2023-08-08T00:22:30.468Z, 36.46
2023-08-08T00:23:30.463Z, 36.45
2023-08-08T00:24:30.458Z, 36.43
2023-08-08T00:25:30.458Z, 36.41
2023-08-08T00:26:30.461Z, 36.42
2023-08-08T00:27:30.489Z, 36.43
2023-08-08T00:28:30.629Z, 36.41
2023-08-08T00:29:30.491Z, 36.38
2023-08-08T00:30:30.484Z, 36.37
2023-08-08T00:31:30.564Z, 36.35
2023-08-08T00:32:30.514Z, 36.34
2023-08-08T00:33:30.505Z, 36.39
2023-08-08T00:34:30.506Z, 36.38
2023-08-08T00:35:30.496Z, 36.37
2023-08-08T00:36:30.505Z, 36.37
2023-08-08T00:37:30.643Z, 36.33
2023-08-08T00:38:30.640Z, 36.29
2023-08-08T00:39:30.641Z, 36.29
2023-08-08T00:40:30.650Z, 36.29
2023-08-08T00:41:30.668Z, 36.27
2023-08-08T00:42:30.648Z, 36.29
2023-08-08T00:43:30.643Z, 36.25
2023-08-08T00:44:30.644Z, 36.27
2023-08-08T00:45:30.636Z, 36.27
2023-08-08T00:46:30.694Z, 36.23
2023-08-08T00:47:30.697Z, 36.21
2023-08-08T00:48:30.679Z, 36.19
2023-08-08T00:49:30.708Z, 36.18
2023-08-08T00:50:30.717Z, 36.16
2023-08-08T00:51:30.712Z, 36.19
2023-08-08T00:52:30.718Z, 36.21
2023-08-08T00:53:30.710Z, 36.21
2023-08-08T00:54:30.727Z, 36.23
2023-08-08T00:55:30.714Z, 36.19
2023-08-08T00:56:30.724Z, 36.19
2023-08-08T00:57:30.714Z, 36.19
2023-08-08T00:58:30.714Z, 36.19
2023-08-08T00:59:30.707Z, 36.20
2023-08-08T01:00:30.782Z, 36.19
2023-08-08T01:01:30.711Z, 36.13
2023-08-08T01:02:30.783Z, 36.14
2023-08-08T01:03:30.822Z, 36.14
2023-08-08T01:04:30.849Z, 36.14
2023-08-08T01:05:30.838Z, 36.13
2023-08-08T01:06:30.919Z, 36.08
2023-08-08T01:07:30.925Z, 36.06
2023-08-08T01:08:30.922Z, 36.07
2023-08-08T01:09:30.938Z, 36.13
2023-08-08T01:10:31.041Z, 36.10
2023-08-08T01:11:30.935Z, 36.05
2023-08-08T01:12:30.921Z, 36.07
2023-08-08T01:13:30.939Z, 36.06
2023-08-08T01:14:30.927Z, 36.07
2023-08-08T01:15:30.956Z, 36.05
2023-08-08T01:16:31.005Z, 36.04
2023-08-08T01:17:31.126Z, 35.98
2023-08-08T01:18:31.099Z, 35.96
2023-08-08T01:19:31.268Z, 36.02
2023-08-08T01:20:31.125Z, 36.01
2023-08-08T01:21:31.267Z, 35.98
2023-08-08T01:22:31.132Z, 36.02
2023-08-08T01:23:31.139Z, 36.03
2023-08-08T01:24:31.292Z, 36.00
2023-08-08T01:25:31.276Z, 35.99
2023-08-08T01:26:31.281Z, 35.97
2023-08-08T01:27:31.282Z, 35.96
2023-08-08T01:28:31.273Z, 35.97
2023-08-08T01:29:31.275Z, 35.93
2023-08-08T01:30:31.302Z, 35.94
2023-08-08T01:31:31.279Z, 35.93
2023-08-08T01:32:31.328Z, 35.96
2023-08-08T01:33:31.280Z, 35.92
2023-08-08T01:34:31.293Z, 35.90
2023-08-08T01:35:31.308Z, 35.86
2023-08-08T01:36:31.289Z, 35.85
2023-08-08T01:37:31.461Z, 35.87
2023-08-08T01:38:31.452Z, 35.86
2023-08-08T01:39:31.521Z, 35.88
2023-08-08T01:40:31.467Z, 35.89
2023-08-08T01:41:31.461Z, 35.88
2023-08-08T01:42:31.476Z, 35.86
2023-08-08T01:43:31.455Z, 35.88
2023-08-08T01:44:31.472Z, 35.85
2023-08-08T01:45:31.467Z, 35.86
2023-08-08T01:46:31.495Z, 35.85
2023-08-08T01:47:31.500Z, 35.83
2023-08-08T01:48:31.478Z, 35.83
2023-08-08T01:49:31.475Z, 35.79
2023-08-08T01:50:31.470Z, 35.77
2023-08-08T01:51:31.467Z, 35.76
2023-08-08T01:52:31.480Z, 35.75
2023-08-08T01:53:31.503Z, 35.77
2023-08-08T01:54:31.470Z, 35.74
2023-08-08T01:55:31.636Z, 35.74
2023-08-08T01:56:31.506Z, 35.75
2023-08-08T01:57:31.803Z, 35.76
2023-08-08T01:58:31.640Z, 35.76
2023-08-08T01:59:31.647Z, 35.75
2023-08-08T02:00:31.638Z, 35.73
2023-08-08T02:01:31.680Z, 35.72
2023-08-08T02:02:31.770Z, 35.67
2023-08-08T02:03:31.872Z, 35.73
2023-08-08T02:04:31.649Z, 35.75
2023-08-08T02:05:31.659Z, 35.76
2023-08-08T02:06:31.649Z, 35.74
2023-08-08T02:07:31.647Z, 35.70
2023-08-08T02:08:31.644Z, 35.69
2023-08-08T02:09:31.843Z, 35.67
2023-08-08T02:10:31.680Z, 35.67
2023-08-08T02:11:31.838Z, 35.69
2023-08-08T02:12:31.683Z, 35.68
2023-08-08T02:13:31.840Z, 35.65
2023-08-08T02:14:31.682Z, 35.67
2023-08-08T02:15:31.871Z, 35.64
2023-08-08T02:16:31.883Z, 35.61
2023-08-08T02:17:31.914Z, 35.64
2023-08-08T02:18:31.873Z, 35.63
2023-08-08T02:19:31.881Z, 35.66
2023-08-08T02:20:31.864Z, 35.63
2023-08-08T02:21:31.858Z, 35.61
2023-08-08T02:22:31.829Z, 35.63
2023-08-08T02:23:31.867Z, 35.63
2023-08-08T02:24:31.820Z, 35.61
2023-08-08T02:25:31.993Z, 35.58
2023-08-08T02:26:31.889Z, 35.58
2023-08-08T02:27:31.997Z, 35.61
2023-08-08T02:28:32.028Z, 35.61
2023-08-08T02:29:31.996Z, 35.56
2023-08-08T02:30:32.000Z, 35.53
2023-08-08T02:31:32.036Z, 35.52
2023-08-08T02:32:32.088Z, 35.51
2023-08-08T02:33:32.009Z, 35.52
2023-08-08T02:34:32.003Z, 35.50
2023-08-08T02:35:32.022Z, 35.49
2023-08-08T02:36:32.009Z, 35.48
2023-08-08T02:37:32.007Z, 35.49
2023-08-08T02:38:32.007Z, 35.51
2023-08-08T02:39:32.006Z, 35.54
2023-08-08T02:40:32.021Z, 35.54
2023-08-08T02:41:32.008Z, 35.50
2023-08-08T02:42:32.184Z, 35.48
2023-08-08T02:43:32.039Z, 35.46
2023-08-08T02:44:32.032Z, 35.49
2023-08-08T02:45:32.044Z, 35.48
2023-08-08T02:46:32.034Z, 35.45
2023-08-08T02:47:32.211Z, 35.42
2023-08-08T02:48:32.194Z, 35.43
2023-08-08T02:49:32.187Z, 35.42
2023-08-08T02:50:32.185Z, 35.43
2023-08-08T02:51:32.209Z, 35.44
2023-08-08T02:52:32.199Z, 35.44
2023-08-08T02:53:32.195Z, 35.44
2023-08-08T02:54:32.230Z, 35.42
2023-08-08T02:55:32.201Z, 35.40
2023-08-08T02:56:32.268Z, 35.36
2023-08-08T02:57:32.229Z, 35.40
2023-08-08T02:58:32.258Z, 35.40
2023-08-08T02:59:32.252Z, 35.42
2023-08-08T03:00:32.254Z, 35.40
2023-08-08T03:01:32.312Z, 35.34
2023-08-08T03:02:32.302Z, 35.31
2023-08-08T03:03:32.262Z, 35.33
2023-08-08T03:04:32.253Z, 35.31
2023-08-08T03:05:32.290Z, 35.31
2023-08-08T03:06:32.259Z, 35.30
2023-08-08T03:07:32.265Z, 35.27
2023-08-08T03:08:32.266Z, 35.25
2023-08-08T03:09:32.271Z, 35.28
2023-08-08T03:10:32.278Z, 35.30
2023-08-08T03:11:32.333Z, 35.27
2023-08-08T03:12:32.299Z, 35.26
2023-08-08T03:13:32.334Z, 35.27
2023-08-08T03:14:32.298Z, 35.27
2023-08-08T03:15:32.434Z, 35.28
2023-08-08T03:16:32.332Z, 35.25
2023-08-08T03:17:32.390Z, 35.24
2023-08-08T03:18:32.323Z, 35.22
2023-08-08T03:19:32.341Z, 35.22
2023-08-08T03:20:32.426Z, 35.18
2023-08-08T03:21:32.450Z, 35.20
2023-08-08T03:22:32.447Z, 35.21
2023-08-08T03:23:32.432Z, 35.21
2023-08-08T03:24:32.476Z, 35.21
2023-08-08T03:25:32.440Z, 35.17
2023-08-08T03:26:32.433Z, 35.18
2023-08-08T03:27:32.470Z, 35.17
2023-08-08T03:28:32.433Z, 35.17
2023-08-08T03:29:32.467Z, 35.15
2023-08-08T03:30:32.447Z, 35.12
2023-08-08T03:31:32.500Z, 35.13
2023-08-08T03:32:32.499Z, 35.17
2023-08-08T03:33:32.479Z, 35.15
2023-08-08T03:34:32.502Z, 35.12
2023-08-08T03:35:32.574Z, 35.12
2023-08-08T03:36:32.529Z, 35.12
2023-08-08T03:37:32.616Z, 35.12
2023-08-08T03:38:32.593Z, 35.10
2023-08-08T03:39:32.621Z, 35.05
2023-08-08T03:40:32.612Z, 35.07
2023-08-08T03:41:32.614Z, 35.06
2023-08-08T03:42:32.624Z, 35.06
2023-08-08T03:43:32.613Z, 35.03
2023-08-08T03:44:32.716Z, 35.03
2023-08-08T03:45:32.684Z, 35.02
2023-08-08T03:46:32.708Z, 35.01
2023-08-08T03:47:32.734Z, 35.03
2023-08-08T03:48:32.686Z, 34.99
2023-08-08T03:49:32.704Z, 34.99
2023-08-08T03:50:32.769Z, 35.00
2023-08-08T03:51:32.751Z, 35.02
2023-08-08T03:52:32.745Z, 35.00
2023-08-08T03:53:32.747Z, 35.00
2023-08-08T03:54:32.747Z, 34.96
2023-08-08T03:55:32.817Z, 34.96
2023-08-08T03:56:32.800Z, 34.97
2023-08-08T03:57:32.859Z, 34.95
2023-08-08T03:58:32.865Z, 34.94
2023-08-08T03:59:32.836Z, 34.91
2023-08-08T04:00:32.842Z, 34.90
2023-08-08T04:01:32.843Z, 34.85
2023-08-08T04:02:32.983Z, 36.59
2023-08-08T04:03:32.898Z, 41.64
2023-08-08T04:04:32.950Z, 46.02
2023-08-08T04:05:32.972Z, 50.68
2023-08-08T04:06:32.924Z, 55.39
2023-08-08T04:07:32.926Z, 59.69
2023-08-08T04:08:32.931Z, 69.93
2023-08-08T04:09:32.957Z, 59.88
2023-08-08T04:10:32.973Z, 55.49
2023-08-08T04:11:33.007Z, 55.42
2023-08-08T04:12:33.019Z, 57.13
2023-08-08T04:13:33.020Z, 59.72
2023-08-08T04:14:33.055Z, 70.23
2023-08-08T04:15:33.049Z, 65.32
2023-08-08T04:16:33.088Z, 59.85
2023-08-08T04:17:33.061Z, 58.46
2023-08-08T04:18:33.034Z, 56.44
2023-08-08T04:19:33.068Z, 55.25
2023-08-08T04:20:33.103Z, 55.56
2023-08-08T04:21:33.058Z, 55.93
2023-08-08T04:22:33.075Z, 56.08
2023-08-08T04:23:33.079Z, 56.25
2023-08-08T04:24:33.162Z, 56.30
2023-08-08T04:25:33.139Z, 56.29
2023-08-08T04:26:33.182Z, 56.28
2023-08-08T04:27:33.128Z, 56.30
2023-08-08T04:28:33.228Z, 56.17
2023-08-08T04:29:33.246Z, 56.10
2023-08-08T04:30:33.244Z, 56.02
2023-08-08T04:31:33.291Z, 55.90
2023-08-08T04:32:33.265Z, 55.83
2023-08-08T04:33:33.247Z, 55.71
2023-08-08T04:34:33.225Z, 55.61
2023-08-08T04:35:33.269Z, 55.49
2023-08-08T04:36:33.252Z, 55.40
2023-08-08T04:37:33.256Z, 55.27
2023-08-08T04:38:33.299Z, 55.19
2023-08-08T04:39:33.296Z, 54.98
2023-08-08T04:40:33.414Z, 55.42
2023-08-08T04:41:33.394Z, 55.53
2023-08-08T04:42:33.357Z, 55.12
2023-08-08T04:43:33.412Z, 54.64
2023-08-08T04:44:33.385Z, 54.19
2023-08-08T04:45:33.436Z, 53.88
2023-08-08T04:46:33.487Z, 53.73
2023-08-08T04:47:33.476Z, 53.46
2023-08-08T04:48:33.419Z, 53.27
2023-08-08T04:49:33.409Z, 53.06
2023-08-08T04:50:33.470Z, 52.85
2023-08-08T04:51:33.467Z, 52.80
2023-08-08T04:52:33.493Z, 52.69
2023-08-08T04:53:33.482Z, 52.65
2023-08-08T04:54:33.481Z, 52.54
2023-08-08T04:55:33.533Z, 52.42
2023-08-08T04:56:33.556Z, 52.29
2023-08-08T04:57:33.523Z, 52.19
2023-08-08T04:58:33.595Z, 52.09
2023-08-08T04:59:33.547Z, 51.97
2023-08-08T05:00:33.619Z, 51.77
2023-08-08T05:01:33.582Z, 51.69
2023-08-08T05:02:33.671Z, 51.91
2023-08-08T05:03:33.651Z, 51.73
2023-08-08T05:04:33.585Z, 51.43
2023-08-08T05:05:33.670Z, 51.15
2023-08-08T05:06:33.654Z, 50.94
2023-08-08T05:07:33.694Z, 50.75
2023-08-08T05:08:33.658Z, 50.61
2023-08-08T05:09:33.726Z, 50.53
2023-08-08T05:10:33.704Z, 50.44
2023-08-08T05:11:33.738Z, 50.39
2023-08-08T05:12:33.721Z, 50.27
2023-08-08T05:13:33.720Z, 50.17
2023-08-08T05:14:33.814Z, 50.10
2023-08-08T05:15:33.760Z, 50.01
2023-08-08T05:16:33.895Z, 49.92
2023-08-08T05:17:33.905Z, 49.88
2023-08-08T05:18:33.806Z, 49.81
2023-08-08T05:19:33.800Z, 49.71
2023-08-08T05:20:33.801Z, 49.66
2023-08-08T05:21:33.875Z, 49.47
2023-08-08T05:22:33.820Z, 49.45
2023-08-08T05:23:33.916Z, 49.37
2023-08-08T05:24:33.851Z, 49.35
2023-08-08T05:25:33.876Z, 49.36
2023-08-08T05:26:33.912Z, 49.28
2023-08-08T05:27:33.866Z, 49.26
2023-08-08T05:28:33.922Z, 49.20
2023-08-08T05:29:33.927Z, 49.14
2023-08-08T05:30:34.031Z, 49.15
2023-08-08T05:31:33.974Z, 49.13
2023-08-08T05:32:33.982Z, 49.10
2023-08-08T05:33:34.171Z, 49.03
2023-08-08T05:34:33.995Z, 49.02
2023-08-08T05:35:33.980Z, 48.94
2023-08-08T05:36:33.987Z, 48.96
2023-08-08T05:37:34.032Z, 48.87
2023-08-08T05:38:34.001Z, 48.83
2023-08-08T05:39:34.103Z, 48.87
2023-08-08T05:40:34.055Z, 48.88
2023-08-08T05:41:34.111Z, 48.86
2023-08-08T05:42:34.108Z, 48.83
2023-08-08T05:43:34.119Z, 48.81
2023-08-08T05:44:34.119Z, 48.82
2023-08-08T05:45:34.113Z, 48.77
2023-08-08T05:46:34.262Z, 48.74
2023-08-08T05:47:34.190Z, 48.70
2023-08-08T05:48:34.215Z, 48.63
2023-08-08T05:49:34.174Z, 48.54
2023-08-08T05:50:34.165Z, 48.55
2023-08-08T05:51:34.160Z, 48.45
2023-08-08T05:52:34.167Z, 48.48
2023-08-08T05:53:34.193Z, 48.51
2023-08-08T05:54:34.216Z, 48.48
2023-08-08T05:55:34.289Z, 48.46
2023-08-08T05:56:34.226Z, 48.43
2023-08-08T05:57:34.243Z, 48.41
2023-08-08T05:58:34.250Z, 48.42
2023-08-08T05:59:34.343Z, 48.40
2023-08-08T06:00:34.301Z, 48.42
2023-08-08T06:01:34.431Z, 48.28
2023-08-08T06:02:34.425Z, 48.32
2023-08-08T06:03:34.400Z, 48.29
2023-08-08T06:04:34.342Z, 48.27
2023-08-08T06:05:34.417Z, 48.28
2023-08-08T06:06:34.386Z, 48.30
2023-08-08T06:07:34.412Z, 48.30
2023-08-08T06:08:34.392Z, 48.23
2023-08-08T06:09:34.405Z, 48.14
2023-08-08T06:10:34.397Z, 48.19
2023-08-08T06:11:34.398Z, 48.16
2023-08-08T06:12:34.403Z, 48.16
2023-08-08T06:13:34.397Z, 48.11
2023-08-08T06:14:34.481Z, 48.09
2023-08-08T06:15:34.477Z, 48.06
2023-08-08T06:16:34.517Z, 48.04
2023-08-08T06:17:34.508Z, 48.01
2023-08-08T06:18:34.467Z, 48.02
2023-08-08T06:19:34.550Z, 48.02
2023-08-08T06:20:34.643Z, 47.95
2023-08-08T06:21:34.548Z, 47.94
2023-08-08T06:22:34.545Z, 47.93
2023-08-08T06:23:34.574Z, 47.85
2023-08-08T06:24:34.562Z, 47.89
2023-08-08T06:25:34.609Z, 47.80
2023-08-08T06:26:34.574Z, 47.88
2023-08-08T06:27:34.594Z, 47.86
2023-08-08T06:28:34.608Z, 47.86
2023-08-08T06:29:34.662Z, 47.85
2023-08-08T06:30:34.671Z, 47.83
2023-08-08T06:31:34.682Z, 47.82
2023-08-08T06:32:34.734Z, 47.75
2023-08-08T06:33:34.687Z, 47.77
2023-08-08T06:34:34.684Z, 47.64
2023-08-08T06:35:34.678Z, 47.60
2023-08-08T06:36:34.673Z, 47.61
2023-08-08T06:37:34.678Z, 47.64
2023-08-08T06:38:34.698Z, 47.59
2023-08-08T06:39:34.721Z, 47.56
2023-08-08T06:40:34.728Z, 47.58
2023-08-08T06:41:34.817Z, 47.53
2023-08-08T06:42:34.799Z, 47.50
2023-08-08T06:46:34.867Z, 47.41
2023-08-08T06:47:34.858Z, 47.48
2023-08-08T06:48:34.919Z, 47.36
2023-08-08T06:49:34.896Z, 47.33
2023-08-08T06:50:34.881Z, 47.30
2023-08-08T06:51:34.925Z, 47.25
2023-08-08T06:52:34.905Z, 47.30
2023-08-08T06:53:34.967Z, 47.33
2023-08-08T06:54:34.938Z, 47.35
2023-08-08T06:55:34.977Z, 47.41
2023-08-08T06:56:34.983Z, 47.42
2023-08-08T06:57:34.931Z, 47.36
2023-08-08T06:58:35.017Z, 47.38
2023-08-08T06:59:34.996Z, 47.34
2023-08-08T07:00:34.999Z, 47.30
2023-08-08T07:01:35.006Z, 47.28
2023-08-08T07:02:35.028Z, 47.29
2023-08-08T07:03:35.187Z, 47.21
2023-08-08T07:04:35.054Z, 47.23
2023-08-08T07:05:35.110Z, 47.23
2023-08-08T07:06:35.066Z, 47.17
2023-08-08T07:07:35.073Z, 47.18
2023-08-08T07:08:35.070Z, 47.20
2023-08-08T07:09:35.098Z, 47.15
2023-08-08T07:10:35.095Z, 47.15
2023-08-08T07:11:35.140Z, 47.07
2023-08-08T07:12:35.137Z, 47.07
2023-08-08T07:13:35.130Z, 47.08
2023-08-08T07:14:35.157Z, 47.08
2023-08-08T07:15:35.185Z, 46.99
2023-08-08T07:16:35.278Z, 47.00
2023-08-08T07:17:35.241Z, 46.94
2023-08-08T07:18:35.224Z, 46.88
2023-08-08T07:19:35.260Z, 46.96
2023-08-08T07:20:35.216Z, 46.97
2023-08-08T07:21:35.309Z, 46.92
2023-08-08T07:22:35.272Z, 46.92
2023-08-08T07:23:35.299Z, 46.85
2023-08-08T07:24:35.271Z, 46.91
2023-08-08T07:25:35.276Z, 46.94
2023-08-08T07:26:35.338Z, 46.96
2023-08-08T07:27:35.282Z, 46.95
2023-08-08T07:28:35.358Z, 46.90
2023-08-08T07:29:35.355Z, 46.88
2023-08-08T07:30:35.357Z, 46.82
2023-08-08T07:31:35.431Z, 46.76
2023-08-08T07:32:35.397Z, 46.73
2023-08-08T07:33:35.426Z, 46.81
2023-08-08T07:34:35.402Z, 46.80
2023-08-08T07:35:35.409Z, 46.73
2023-08-08T07:36:35.405Z, 46.70
2023-08-08T07:37:35.423Z, 46.77
2023-08-08T07:38:35.422Z, 46.74
2023-08-08T07:39:35.445Z, 46.67
2023-08-08T07:40:35.488Z, 46.69
2023-08-08T07:41:35.451Z, 46.66
2023-08-08T07:42:35.463Z, 46.72
2023-08-08T07:43:35.466Z, 46.68
2023-08-08T07:44:35.475Z, 46.66
2023-08-08T07:45:35.484Z, 46.56
2023-08-08T07:46:35.608Z, 46.57
2023-08-08T07:47:35.573Z, 46.53
2023-08-08T07:48:35.552Z, 46.62
2023-08-08T07:49:35.612Z, 46.55
2023-08-08T07:50:35.596Z, 46.57
2023-08-08T07:51:35.598Z, 46.57
2023-08-08T07:52:35.577Z, 46.55
2023-08-08T07:53:35.636Z, 46.49
2023-08-08T07:54:35.625Z, 46.46
2023-08-08T07:55:35.685Z, 46.41
2023-08-08T07:56:35.655Z, 46.38
2023-08-08T07:57:35.654Z, 46.42
2023-08-08T07:58:35.706Z, 46.33
2023-08-08T07:59:35.668Z, 46.34
2023-08-08T08:00:35.741Z, 46.29
2023-08-08T08:01:35.768Z, 46.36
2023-08-08T08:02:35.857Z, 46.37
2023-08-08T08:03:35.815Z, 46.34
2023-08-08T08:04:35.803Z, 46.41
2023-08-08T08:05:35.768Z, 46.32
2023-08-08T08:06:35.839Z, 46.28
2023-08-08T08:07:35.819Z, 46.24
2023-08-08T08:08:35.855Z, 46.19
2023-08-08T08:09:35.851Z, 46.22
2023-08-08T08:10:35.827Z, 46.18
2023-08-08T08:11:35.832Z, 46.12
2023-08-08T08:12:35.857Z, 46.21
2023-08-08T08:13:35.899Z, 46.22
2023-08-08T08:14:35.870Z, 46.14
2023-08-08T08:15:35.932Z, 46.10
2023-08-08T08:16:35.949Z, 46.11
2023-08-08T08:17:36.022Z, 46.07
2023-08-08T08:18:35.927Z, 46.05
2023-08-08T08:19:35.963Z, 46.08
2023-08-08T08:20:36.016Z, 46.09
2023-08-08T08:21:35.965Z, 46.03
2023-08-08T08:22:36.051Z, 46.10
2023-08-08T08:23:35.997Z, 46.08
2023-08-08T08:24:36.053Z, 46.08
2023-08-08T08:25:36.021Z, 46.09
2023-08-08T08:26:36.036Z, 46.08
2023-08-08T08:27:36.026Z, 46.10
2023-08-08T08:28:36.126Z, 46.05
2023-08-08T08:29:36.094Z, 46.02
2023-08-08T08:30:36.092Z, 46.00
2023-08-08T08:31:36.113Z, 45.95
2023-08-08T08:32:36.190Z, 45.90
2023-08-08T08:33:36.094Z, 45.94
2023-08-08T08:34:36.128Z, 45.89
2023-08-08T08:35:36.129Z, 45.84
2023-08-08T08:36:36.130Z, 45.88
2023-08-08T08:37:36.132Z, 45.81
2023-08-08T08:38:36.146Z, 45.79
2023-08-08T08:39:36.196Z, 45.80
2023-08-08T08:40:36.184Z, 45.80
2023-08-08T08:41:36.248Z, 45.83
2023-08-08T08:42:36.246Z, 45.87
2023-08-08T08:43:36.276Z, 45.79
2023-08-08T08:44:36.227Z, 45.80
2023-08-08T08:45:36.241Z, 45.77
2023-08-08T08:46:36.338Z, 45.75
2023-08-08T08:47:36.318Z, 45.71
2023-08-08T08:48:36.344Z, 45.72
2023-08-08T08:49:36.312Z, 45.78
2023-08-08T08:50:36.351Z, 45.73
2023-08-08T08:51:36.339Z, 45.68
2023-08-08T08:52:36.369Z, 45.70
2023-08-08T08:53:36.346Z, 45.70
2023-08-08T08:54:36.397Z, 45.63
2023-08-08T08:55:36.374Z, 45.57
2023-08-08T08:56:36.374Z, 45.55
2023-08-08T08:57:36.457Z, 45.57
2023-08-08T08:58:36.398Z, 45.55
2023-08-08T08:59:36.446Z, 45.48
2023-08-08T09:00:36.477Z, 45.52
2023-08-08T09:01:36.425Z, 45.51
2023-08-08T09:02:36.526Z, 45.51
2023-08-08T09:03:36.584Z, 45.53
2023-08-08T09:04:36.480Z, 45.44
2023-08-08T09:05:36.479Z, 45.45
2023-08-08T09:06:36.482Z, 45.39
2023-08-08T09:07:36.494Z, 45.41
2023-08-08T09:08:36.645Z, 45.39
2023-08-08T09:09:36.618Z, 45.38
2023-08-08T09:10:36.683Z, 45.42
2023-08-08T09:11:36.571Z, 45.40
2023-08-08T09:12:36.569Z, 45.37
2023-08-08T09:13:36.641Z, 45.35
2023-08-08T09:14:36.632Z, 45.32
2023-08-08T09:15:36.673Z, 45.36
2023-08-08T09:16:36.696Z, 45.32
2023-08-08T09:17:47.449Z, 45.28
2023-08-08T09:18:36.662Z, 45.26
2023-08-08T09:19:36.658Z, 45.22
2023-08-08T09:20:36.742Z, 45.22
2023-08-08T09:21:36.705Z, 45.18
2023-08-08T09:22:36.704Z, 45.17
2023-08-08T09:23:36.773Z, 45.17
2023-08-08T09:24:36.724Z, 45.17
2023-08-08T09:25:36.814Z, 45.14
2023-08-08T09:26:36.807Z, 45.13
2023-08-08T09:27:36.798Z, 45.17
2023-08-08T09:28:36.812Z, 45.12
2023-08-08T09:29:36.794Z, 45.12
2023-08-08T09:30:36.877Z, 45.12
2023-08-08T09:31:36.882Z, 45.10
2023-08-08T09:32:36.895Z, 45.07
2023-08-08T09:33:36.908Z, 45.06
2023-08-08T09:34:36.898Z, 45.09
2023-08-08T09:35:36.904Z, 45.02
2023-08-08T09:36:36.887Z, 45.00
2023-08-08T09:37:36.893Z, 45.00
2023-08-08T09:38:36.913Z, 45.07
2023-08-08T09:39:36.914Z, 44.99
2023-08-08T09:40:36.919Z, 44.99
2023-08-08T09:41:36.931Z, 44.96
2023-08-08T09:42:37.057Z, 44.97
2023-08-08T09:43:37.009Z, 44.93
2023-08-08T09:44:37.043Z, 44.92
2023-08-08T09:45:37.025Z, 44.89
2023-08-08T09:46:37.142Z, 44.86
2023-08-08T09:47:37.106Z, 44.82
2023-08-08T09:48:37.102Z, 44.87
2023-08-08T09:49:37.087Z, 44.85
2023-08-08T09:50:37.062Z, 44.77
2023-08-08T09:51:37.074Z, 44.82
2023-08-08T09:52:37.113Z, 44.79
2023-08-08T09:53:37.100Z, 44.82
2023-08-08T09:54:37.107Z, 44.82
2023-08-08T09:55:37.183Z, 44.74
2023-08-08T09:56:37.145Z, 44.73
2023-08-08T09:57:37.189Z, 44.70
2023-08-08T09:58:37.193Z, 44.74
2023-08-08T09:59:37.228Z, 44.65
2023-08-08T10:00:37.192Z, 44.63
2023-08-08T10:01:37.303Z, 44.60
2023-08-08T10:02:37.264Z, 44.62
2023-08-08T10:03:37.431Z, 44.63
2023-08-08T10:04:37.240Z, 44.58
2023-08-08T10:05:37.215Z, 44.55
2023-08-08T10:06:37.308Z, 44.56
2023-08-08T10:07:37.252Z, 44.56
2023-08-08T10:08:37.334Z, 44.54
2023-08-08T10:09:37.327Z, 44.56
2023-08-08T10:10:37.407Z, 44.51
2023-08-08T10:11:37.357Z, 44.47
2023-08-08T10:12:37.345Z, 44.46
2023-08-08T10:13:37.405Z, 44.46
2023-08-08T10:14:37.381Z, 44.44
2023-08-08T10:15:37.427Z, 44.46
2023-08-08T10:16:37.396Z, 44.46
2023-08-08T10:17:37.534Z, 44.45
2023-08-08T10:18:37.482Z, 44.45
2023-08-08T10:19:37.499Z, 44.47
2023-08-08T10:20:37.462Z, 44.46
2023-08-08T10:21:37.458Z, 44.49
2023-08-08T10:22:37.571Z, 44.47
2023-08-08T10:23:37.467Z, 44.40
2023-08-08T10:24:37.546Z, 44.37
2023-08-08T10:25:37.487Z, 44.35
2023-08-08T10:26:37.491Z, 44.37
2023-08-08T10:27:37.532Z, 44.34
2023-08-08T10:28:37.508Z, 44.31
2023-08-08T10:29:37.522Z, 44.28
2023-08-08T10:30:37.519Z, 44.31
2023-08-08T10:31:37.718Z, 44.28
2023-08-08T10:32:37.621Z, 44.27
2023-08-08T10:33:37.586Z, 44.29
2023-08-08T10:34:37.582Z, 44.21
2023-08-08T10:35:37.632Z, 44.10
2023-08-08T10:36:37.610Z, 44.19
2023-08-08T10:37:37.636Z, 44.19
2023-08-08T10:38:37.701Z, 44.17
2023-08-08T10:39:37.673Z, 44.18
2023-08-08T10:40:37.721Z, 44.15
2023-08-08T10:41:37.712Z, 44.14
2023-08-08T10:42:37.923Z, 44.16
2023-08-08T10:43:37.922Z, 44.16
2023-08-08T10:44:37.927Z, 44.12
2023-08-08T10:45:37.772Z, 44.07
2023-08-08T10:46:37.962Z, 44.02
2023-08-08T10:47:37.978Z, 44.02
2023-08-08T10:48:37.917Z, 44.01
2023-08-08T10:49:37.921Z, 43.93
2023-08-08T10:50:37.764Z, 43.91
2023-08-08T10:51:37.918Z, 43.92
2023-08-08T10:52:37.792Z, 43.91
2023-08-08T10:53:37.876Z, 43.85
2023-08-08T10:54:37.857Z, 43.83
2023-08-08T10:55:37.930Z, 43.82
2023-08-08T10:56:37.948Z, 43.84
2023-08-08T10:57:37.873Z, 43.88
2023-08-08T10:58:37.870Z, 43.77
2023-08-08T10:59:37.886Z, 43.76
2023-08-08T11:00:38.005Z, 43.83
2023-08-08T11:01:37.975Z, 43.82
2023-08-08T11:02:38.148Z, 43.78
2023-08-08T11:03:37.996Z, 43.78
2023-08-08T11:04:38.070Z, 43.72
2023-08-08T11:05:38.111Z, 43.76
2023-08-08T11:06:38.014Z, 43.76
2023-08-08T11:07:38.052Z, 43.70
2023-08-08T11:08:38.018Z, 43.68
2023-08-08T11:09:38.014Z, 43.70
2023-08-08T11:10:38.233Z, 43.64
2023-08-08T11:11:38.132Z, 43.62
2023-08-08T11:12:38.101Z, 43.74
2023-08-08T11:13:38.131Z, 43.69
2023-08-08T11:14:38.082Z, 43.71
2023-08-08T11:15:38.620Z, 43.69
2023-08-08T11:16:38.106Z, 43.62
2023-08-08T11:17:38.209Z, 43.57
2023-08-08T11:18:38.154Z, 43.63
2023-08-08T11:19:38.149Z, 43.57
2023-08-08T11:20:38.174Z, 43.58
2023-08-08T11:21:38.148Z, 43.58
2023-08-08T11:22:38.166Z, 43.56
2023-08-08T11:23:38.175Z, 43.52
2023-08-08T11:24:38.189Z, 43.52
2023-08-08T11:25:38.201Z, 43.50
2023-08-08T11:26:38.199Z, 43.51
2023-08-08T11:28:38.278Z, 43.51
2023-08-08T11:29:38.268Z, 43.51
2023-08-08T11:30:38.269Z, 43.46
2023-08-08T11:31:38.304Z, 43.43
2023-08-08T11:32:38.404Z, 43.43
2023-08-08T11:33:38.377Z, 43.39
2023-08-08T11:34:38.350Z, 43.32
2023-08-08T11:35:38.381Z, 43.30
2023-08-08T11:36:38.377Z, 43.38
2023-08-08T11:37:38.387Z, 43.37
2023-08-08T11:38:38.400Z, 43.38
2023-08-08T11:39:38.436Z, 43.33
2023-08-08T11:40:38.422Z, 43.28
2023-08-08T11:41:38.460Z, 43.30
2023-08-08T11:42:38.433Z, 43.34
2023-08-08T11:43:38.465Z, 43.33
2023-08-08T11:44:38.442Z, 43.29
2023-08-08T11:45:38.500Z, 43.28
2023-08-08T11:46:38.492Z, 43.31
2023-08-08T11:47:38.594Z, 43.27
2023-08-08T11:48:38.500Z, 43.24
2023-08-08T11:49:38.477Z, 43.21
2023-08-08T11:50:38.567Z, 43.21
2023-08-08T11:51:38.528Z, 43.21
2023-08-08T11:52:38.537Z, 43.19
2023-08-08T11:53:38.607Z, 43.13
2023-08-08T11:54:38.552Z, 43.14
2023-08-08T11:55:38.645Z, 43.12
2023-08-08T11:56:38.617Z, 43.12
2023-08-08T11:57:38.614Z, 43.17
2023-08-08T11:58:38.698Z, 43.15
2023-08-08T11:59:38.627Z, 43.12
2023-08-08T12:00:38.735Z, 43.07
2023-08-08T12:01:38.684Z, 43.04
2023-08-08T12:02:38.735Z, 43.07
2023-08-08T12:03:38.772Z, 43.09
2023-08-08T12:04:38.699Z, 43.04
2023-08-08T12:05:38.753Z, 43.00
2023-08-08T12:06:38.790Z, 42.96
2023-08-08T12:07:38.748Z, 42.91
2023-08-08T12:08:38.897Z, 42.94
2023-08-08T12:09:38.814Z, 42.95
2023-08-08T12:10:38.849Z, 43.03
2023-08-08T12:11:38.862Z, 42.98
2023-08-08T12:12:40.100Z, 42.98
2023-08-08T12:13:38.915Z, 42.90
2023-08-08T12:14:50.928Z, 42.90
2023-08-08T12:15:38.810Z, 42.89
2023-08-08T12:16:38.833Z, 42.84
2023-08-08T12:17:38.882Z, 42.82
2023-08-08T12:18:38.849Z, 42.81
2023-08-08T12:19:38.852Z, 42.84
2023-08-08T12:20:38.865Z, 42.82
2023-08-08T12:21:38.972Z, 42.82
2023-08-08T12:22:39.083Z, 42.78
2023-08-08T12:23:38.968Z, 42.74
2023-08-08T12:24:38.956Z, 42.71
2023-08-08T12:25:38.964Z, 42.77
2023-08-08T12:26:39.015Z, 42.72
2023-08-08T12:27:39.002Z, 42.74
2023-08-08T12:28:38.982Z, 42.73
2023-08-08T12:29:38.981Z, 42.70
2023-08-08T12:30:38.986Z, 42.67
2023-08-08T12:31:38.996Z, 42.68
2023-08-08T12:32:39.031Z, 42.68